TimeCDT,TemperatureF,Dew PointF,Humidity,Sea Level PressureIn,VisibilityMPH,Wind Direction,Wind SpeedMPH,Gust SpeedMPH,PrecipitationIn,Events,Conditions,WindDirDegrees,DateUTC
12:15 AM,81.5,73.9,78,29.94,10.0,ESE,5.8,-,N/A,,Scattered Clouds,120,2013-08-20 05:15:00
12:35 AM,81.7,74.5,79,29.94,10.0,Calm,Calm,-,N/A,,Scattered Clouds,0,2013-08-20 05:35:00
12:55 AM,81.9,74.3,78,29.94,10.0,SE,5.8,-,N/A,,Clear,140,2013-08-20 05:55:00
1:15 AM,81.9,74.5,78,29.94,10.0,SE,5.8,-,N/A,,Scattered Clouds,130,2013-08-20 06:15:00
1:35 AM,81.7,74.5,79,29.94,10.0,SE,4.6,-,N/A,,Clear,130,2013-08-20 06:35:00
1:55 AM,81.5,74.3,79,29.94,10.0,SE,5.8,-,N/A,,Clear,140,2013-08-20 06:55:00
2:15 AM,81.3,74.7,80,29.94,10.0,SSE,4.6,-,N/A,,Mostly Cloudy,150,2013-08-20 07:15:00
2:35 AM,82.2,75.0,79,29.93,10.0,SSE,5.8,-,N/A,,Scattered Clouds,150,2013-08-20 07:35:00
2:55 AM,82.6,74.8,77,29.93,10.0,SSE,5.8,-,N/A,,Scattered Clouds,150,2013-08-20 07:55:00
3:15 AM,82.0,74.5,78,29.93,10.0,South,5.8,-,N/A,,Scattered Clouds,170,2013-08-20 08:15:00
3:35 AM,81.9,74.5,78,29.93,10.0,South,4.6,-,N/A,,Clear,170,2013-08-20 08:35:00
3:55 AM,81.7,74.1,78,29.93,10.0,North,-9999.0,-,N/A,,Clear,0,2013-08-20 08:55:00
4:15 AM,81.3,73.9,78,29.93,10.0,South,3.5,-,N/A,,Scattered Clouds,170,2013-08-20 09:15:00
4:35 AM,81.5,73.8,77,29.93,10.0,Calm,Calm,-,N/A,,Scattered Clouds,0,2013-08-20 09:35:00
4:55 AM,81.7,73.8,77,29.92,10.0,South,4.6,-,N/A,,Scattered Clouds,190,2013-08-20 09:55:00
5:15 AM,81.9,73.6,76,29.92,10.0,South,4.6,-,N/A,,Scattered Clouds,180,2013-08-20 10:15:00
5:35 AM,81.9,73.9,77,29.92,10.0,Calm,Calm,-,N/A,Thunderstorm,Mostly Cloudy,0,2013-08-20 10:35:00
5:55 AM,81.3,73.9,78,29.93,10.0,Calm,Calm,-,N/A,Thunderstorm,Mostly Cloudy,0,2013-08-20 10:55:00
6:15 AM,80.4,73.0,78,29.94,3.0,South,8.1,20.7,0.18,Rain-Thunderstorm,Heavy Thunderstorms and Rain,190,2013-08-20 11:15:00
6:35 AM,77.4,73.6,88,29.94,10.0,NNW,4.6,-,0.22,Rain-Thunderstorm,Light Thunderstorms and Rain,330,2013-08-20 11:35:00
6:55 AM,77.7,74.7,90,29.94,10.0,Calm,Calm,-,0.22,Thunderstorm,Thunderstorm,0,2013-08-20 11:55:00
7:15 AM,79.2,75.7,89,29.94,10.0,Calm,Calm,-,N/A,Thunderstorm,Scattered Clouds,0,2013-08-20 12:15:00
7:35 AM,78.6,75.6,90,29.95,10.0,Calm,Calm,-,N/A,Thunderstorm,Thunderstorm,0,2013-08-20 12:35:00
7:55 AM,78.3,75.6,91,29.96,10.0,East,5.8,-,N/A,Thunderstorm,Thunderstorm,100,2013-08-20 12:55:00
8:15 AM,78.1,75.7,92,29.97,1.2,South,6.9,-,0.17,Rain-Thunderstorm,Heavy Thunderstorms and Rain,170,2013-08-20 13:15:00
8:35 AM,76.1,73.9,93,29.97,3.0,Calm,Calm,-,0.31,Rain-Thunderstorm,Light Thunderstorms and Rain,0,2013-08-20 13:35:00
8:55 AM,76.1,74.1,94,29.98,10.0,Calm,Calm,-,0.32,Rain-Thunderstorm,Light Thunderstorms and Rain,0,2013-08-20 13:55:00
9:15 AM,77.4,74.8,92,29.99,10.0,East,3.5,-,N/A,,Scattered Clouds,90,2013-08-20 14:15:00
9:35 AM,78.8,76.3,92,29.99,10.0,Calm,Calm,-,N/A,Thunderstorm,Thunderstorm,0,2013-08-20 14:35:00
9:55 AM,80.1,76.6,89,29.99,10.0,Calm,Calm,-,N/A,Thunderstorm,Mostly Cloudy,0,2013-08-20 14:55:00
10:15 AM,80.6,75.2,84,30.00,10.0,Calm,Calm,-,N/A,,Overcast,0,2013-08-20 15:15:00
10:35 AM,81.0,75.7,84,30.01,10.0,SSE,4.6,-,N/A,,Overcast,160,2013-08-20 15:35:00
10:55 AM,80.8,75.0,83,29.99,10.0,ESE,5.8,-,N/A,,Mostly Cloudy,120,2013-08-20 15:55:00
11:15 AM,79.9,73.2,80,30.00,10.0,ESE,6.9,-,N/A,Thunderstorm,Thunderstorm,120,2013-08-20 16:15:00
11:35 AM,78.8,73.4,83,30.02,10.0,SSE,10.4,-,N/A,Thunderstorm,Thunderstorm,150,2013-08-20 16:35:00
11:55 AM,77.7,74.1,89,30.03,10.0,SE,11.5,17.3,N/A,Rain-Thunderstorm,Light Thunderstorms and Rain,130,2013-08-20 16:55:00
12:15 PM,76.3,73.8,92,30.03,10.0,ESE,10.4,-,N/A,Rain-Thunderstorm,Thunderstorms and Rain,110,2013-08-20 17:15:00
12:35 PM,76.1,74.1,94,30.02,10.0,ESE,9.2,-,N/A,,Light Drizzle,110,2013-08-20 17:35:00
12:55 PM,76.3,74.5,94,30.02,7.0,ESE,8.1,-,0.02,Rain,Light Rain,110,2013-08-20 17:55:00
1:15 PM,75.7,74.1,95,30.02,7.0,ESE,9.2,-,0.02,Rain,Rain,110,2013-08-20 18:15:00
1:35 PM,76.1,74.7,95,30.01,5.0,ENE,5.8,-,0.05,Rain,Rain,70,2013-08-20 18:35:00
1:55 PM,76.6,75.0,95,30.00,10.0,ENE,6.9,-,0.08,Rain-Thunderstorm,Light Thunderstorms and Rain,60,2013-08-20 18:55:00
2:15 PM,76.8,74.8,94,30.00,10.0,ENE,4.6,-,N/A,,Light Drizzle,60,2013-08-20 19:15:00
2:35 PM,77.5,74.8,91,29.99,10.0,East,4.6,-,N/A,,Light Drizzle,80,2013-08-20 19:35:00
2:55 PM,79.3,75.2,87,29.99,10.0,East,6.9,-,N/A,,Clear,100,2013-08-20 19:55:00
3:15 PM,81.7,74.1,78,29.99,10.0,SE,6.9,-,N/A,,Clear,140,2013-08-20 20:15:00
3:35 PM,83.5,73.6,72,29.98,10.0,SE,6.9,-,N/A,,Clear,130,2013-08-20 20:35:00
3:55 PM,83.5,73.6,72,29.97,10.0,SSE,8.1,-,N/A,,Clear,150,2013-08-20 20:55:00
4:15 PM,86.2,72.0,62,29.96,10.0,SE,11.5,-,N/A,,Clear,140,2013-08-20 21:15:00
4:35 PM,86.7,72.1,62,29.96,10.0,ESE,13.8,-,N/A,,Clear,120,2013-08-20 21:35:00
4:55 PM,85.6,72.1,64,29.95,10.0,ESE,12.7,-,N/A,,Clear,120,2013-08-20 21:55:00
5:15 PM,84.9,72.7,67,29.95,10.0,ESE,10.4,-,N/A,,Clear,120,2013-08-20 22:15:00
5:35 PM,84.6,72.9,68,29.95,10.0,ESE,13.8,-,N/A,,Clear,110,2013-08-20 22:35:00
5:55 PM,83.8,72.9,69,29.94,10.0,ESE,11.5,-,N/A,,Clear,110,2013-08-20 22:55:00
6:15 PM,83.8,73.2,70,29.94,10.0,East,10.4,-,N/A,,Clear,90,2013-08-20 23:15:00
6:35 PM,83.5,73.6,72,29.94,10.0,East,10.4,-,N/A,,Clear,100,2013-08-20 23:35:00
6:55 PM,83.3,73.6,72,29.94,10.0,East,10.4,-,N/A,,Clear,90,2013-08-20 23:55:00
7:15 PM,82.8,73.4,73,29.94,10.0,East,10.4,-,N/A,,Clear,90,2013-08-21 00:15:00
7:35 PM,82.6,73.6,74,29.95,10.0,East,8.1,-,N/A,,Clear,100,2013-08-21 00:35:00
7:55 PM,82.0,73.8,76,29.96,10.0,East,8.1,-,N/A,,Clear,100,2013-08-21 00:55:00
8:15 PM,81.3,73.6,77,29.96,10.0,East,5.8,-,N/A,,Clear,100,2013-08-21 01:15:00
8:35 PM,81.0,73.8,79,29.97,10.0,East,5.8,-,N/A,,Clear,90,2013-08-21 01:35:00
8:55 PM,80.8,73.8,79,29.97,10.0,East,6.9,-,N/A,,Clear,90,2013-08-21 01:55:00
9:15 PM,80.8,73.6,79,29.97,10.0,East,4.6,-,N/A,,Clear,100,2013-08-21 02:15:00
9:35 PM,81.0,73.6,78,29.98,10.0,East,5.8,-,N/A,,Clear,80,2013-08-21 02:35:00
9:55 PM,81.3,73.6,77,29.98,10.0,East,4.6,-,N/A,,Scattered Clouds,90,2013-08-21 02:55:00
10:15 PM,81.3,74.1,79,29.98,10.0,East,6.9,-,N/A,,Scattered Clouds,90,2013-08-21 03:15:00
10:35 PM,81.5,74.5,79,29.99,10.0,East,8.1,-,N/A,,Scattered Clouds,100,2013-08-21 03:35:00
10:55 PM,81.5,74.5,79,29.99,10.0,East,8.1,-,N/A,,Clear,100,2013-08-21 03:55:00
11:15 PM,81.3,74.5,80,29.99,10.0,ESE,8.1,-,N/A,,Clear,110,2013-08-21 04:15:00
11:35 PM,81.5,74.5,79,29.99,10.0,ESE,8.1,-,N/A,,Clear,110,2013-08-21 04:35:00
11:55 PM,81.5,74.3,79,29.99,10.0,ESE,9.2,-,N/A,,Clear,110,2013-08-21 04:55:00